createdAt,value
2018-06-29T00:00:25.671Z,19.30
2018-06-29T00:02:54.565Z,19.30
2018-06-29T00:05:23.837Z,19.20
2018-06-29T00:07:53.397Z,19.20
2018-06-29T00:10:24.251Z,19.10
2018-06-29T00:12:54.254Z,19.10
2018-06-29T00:15:24.065Z,19.00
2018-06-29T00:17:53.350Z,19.00
2018-06-29T00:20:22.491Z,18.90
2018-06-29T00:22:51.348Z,18.80
2018-06-29T00:25:20.300Z,18.80
2018-06-29T00:27:49.438Z,18.80
2018-06-29T00:30:18.578Z,18.70
2018-06-29T00:32:47.665Z,18.60
2018-06-29T00:35:17.317Z,18.60
2018-06-29T00:37:46.452Z,18.60
2018-06-29T00:40:15.297Z,18.50
2018-06-29T00:42:44.678Z,18.40
2018-06-29T00:45:14.891Z,18.40
2018-06-29T00:47:44.120Z,18.20
2018-06-29T00:50:13.518Z,18.20
2018-06-29T00:52:42.690Z,18.20
2018-06-29T00:55:12.627Z,18.10
2018-06-29T00:57:41.683Z,18.10
2018-06-29T01:00:10.688Z,18.00
2018-06-29T01:02:39.780Z,17.90
2018-06-29T01:05:08.913Z,17.80
2018-06-29T01:07:38.225Z,17.80
2018-06-29T01:10:07.494Z,17.80
2018-06-29T01:12:36.692Z,17.70
2018-06-29T01:15:05.954Z,17.70
2018-06-29T01:17:34.856Z,17.60
2018-06-29T01:20:03.773Z,17.60
2018-06-29T01:22:32.605Z,17.60
2018-06-29T01:25:01.406Z,17.50
2018-06-29T01:27:30.265Z,17.50
2018-06-29T01:29:59.165Z,17.50
2018-06-29T01:32:28.042Z,17.50
2018-06-29T01:34:56.891Z,17.50
2018-06-29T01:37:25.701Z,17.40
2018-06-29T01:39:54.525Z,17.40
2018-06-29T01:42:23.337Z,17.40
2018-06-29T01:44:52.288Z,17.40
2018-06-29T01:47:21.190Z,17.30
2018-06-29T01:52:18.568Z,17.20
2018-06-29T01:54:47.572Z,17.10
2018-06-29T01:57:16.512Z,17.10
2018-06-29T01:59:46.191Z,17.00
2018-06-29T02:02:14.989Z,17.00
2018-06-29T02:04:43.816Z,17.00
2018-06-29T02:07:12.694Z,16.90
2018-06-29T02:09:41.532Z,16.90
2018-06-29T02:12:12.937Z,16.80
2018-06-29T02:14:45.561Z,16.80
2018-06-29T02:19:42.875Z,16.70
2018-06-29T02:22:11.924Z,16.70
2018-06-29T02:24:40.760Z,16.60
2018-06-29T02:27:09.705Z,16.60
2018-06-29T02:29:38.513Z,16.60
2018-06-29T02:34:35.966Z,16.50
2018-06-29T02:37:05.095Z,16.50
2018-06-29T02:39:33.950Z,16.40
2018-06-29T02:42:03.317Z,16.40
2018-06-29T02:44:32.332Z,16.40
2018-06-29T02:47:01.557Z,16.40
2018-06-29T02:49:30.841Z,16.30
2018-06-29T02:51:59.921Z,16.30
2018-06-29T02:54:29.324Z,16.20
2018-06-29T02:56:58.620Z,16.20
2018-06-29T02:59:27.997Z,16.20
2018-06-29T03:01:57.025Z,16.20
2018-06-29T03:04:26.629Z,16.10
2018-06-29T03:06:55.725Z,16.10
2018-06-29T03:09:25.107Z,16.00
2018-06-29T03:11:54.260Z,16.00
2018-06-29T03:14:23.222Z,16.00
2018-06-29T03:16:52.378Z,15.90
2018-06-29T03:19:21.167Z,15.90
2018-06-29T03:21:50.029Z,15.90
2018-06-29T03:24:18.905Z,15.80
2018-06-29T03:26:47.776Z,15.80
2018-06-29T03:29:16.918Z,15.80
2018-06-29T03:31:46.246Z,15.70
2018-06-29T03:34:15.561Z,15.70
2018-06-29T03:36:45.143Z,15.70
2018-06-29T03:39:14.284Z,15.60
2018-06-29T03:41:43.272Z,15.60
2018-06-29T03:46:59.534Z,15.60
2018-06-29T03:49:28.395Z,15.50
2018-06-29T03:51:57.371Z,15.40
2018-06-29T03:54:26.345Z,15.40
2018-06-29T03:56:55.238Z,15.40
2018-06-29T03:59:24.517Z,15.30
2018-06-29T04:01:53.448Z,15.30
2018-06-29T04:04:22.298Z,15.30
2018-06-29T04:06:51.872Z,15.30
2018-06-29T04:09:21.080Z,15.30
2018-06-29T04:11:50.091Z,15.20
2018-06-29T04:14:19.025Z,15.20
2018-06-29T04:16:48.113Z,15.20
2018-06-29T04:19:17.124Z,15.10
2018-06-29T04:21:46.380Z,15.10
2018-06-29T04:26:44.851Z,15.10
2018-06-29T04:29:13.670Z,15.10
2018-06-29T04:31:42.502Z,15.10
2018-06-29T04:34:11.440Z,15.10
2018-06-29T04:36:40.716Z,15.10
2018-06-29T04:39:10.648Z,15.10
2018-06-29T04:41:39.636Z,15.10
2018-06-29T04:44:08.495Z,15.10
2018-06-29T04:46:37.707Z,15.00
2018-06-29T04:49:06.595Z,15.00
2018-06-29T04:51:35.469Z,15.00
2018-06-29T04:54:04.424Z,15.00
2018-06-29T04:56:33.671Z,15.00
2018-06-29T04:59:02.576Z,15.10
2018-06-29T05:01:31.428Z,15.10
2018-06-29T05:04:00.292Z,15.10
2018-06-29T05:06:29.172Z,15.10
2018-06-29T05:08:58.428Z,15.10
2018-06-29T05:11:27.901Z,15.10
2018-06-29T05:16:32.073Z,15.10
2018-06-29T05:19:01.623Z,15.10
2018-06-29T05:21:30.989Z,15.10
2018-06-29T05:24:00.900Z,15.10
2018-06-29T05:26:29.888Z,15.10
2018-06-29T05:28:58.942Z,15.10
2018-06-29T05:31:27.756Z,15.10
2018-06-29T05:33:56.831Z,15.20
2018-06-29T05:36:26.252Z,15.20
2018-06-29T05:38:55.181Z,15.30
2018-06-29T05:41:24.339Z,15.30
2018-06-29T05:43:53.436Z,15.30
2018-06-29T05:46:22.536Z,15.40
2018-06-29T05:48:51.628Z,15.40
2018-06-29T05:51:20.749Z,15.50
2018-06-29T05:53:50.921Z,15.50
2018-06-29T05:56:19.929Z,15.60
2018-06-29T05:58:48.900Z,15.60
2018-06-29T06:01:17.806Z,15.70
2018-06-29T06:03:46.965Z,15.80
2018-06-29T06:06:16.138Z,15.80
2018-06-29T06:08:45.364Z,15.90
2018-06-29T06:11:14.447Z,15.90
2018-06-29T06:13:43.620Z,15.90
2018-06-29T06:16:12.717Z,15.90
2018-06-29T06:18:41.373Z,16.00
2018-06-29T06:21:10.212Z,16.00
2018-06-29T06:23:39.107Z,16.10
2018-06-29T06:26:08.456Z,16.10
2018-06-29T06:28:37.333Z,16.20
2018-06-29T06:31:06.188Z,16.20
2018-06-29T06:33:35.030Z,16.30
2018-06-29T06:36:03.892Z,16.30
2018-06-29T06:38:32.744Z,16.40
2018-06-29T06:41:01.699Z,16.50
2018-06-29T06:43:30.588Z,16.60
2018-06-29T06:45:59.490Z,16.60
2018-06-29T06:48:28.384Z,16.70
2018-06-29T06:50:57.392Z,16.80
2018-06-29T06:53:26.293Z,16.90
2018-06-29T06:55:55.213Z,17.00
2018-06-29T06:58:25.136Z,17.00
2018-06-29T07:00:54.162Z,17.00
2018-06-29T07:03:25.952Z,17.00
2018-06-29T07:05:55.854Z,16.90
2018-06-29T07:08:26.466Z,16.90
2018-06-29T07:10:55.304Z,16.90
2018-06-29T07:13:24.198Z,16.90
2018-06-29T07:15:53.159Z,16.90
2018-06-29T07:18:22.489Z,16.90
2018-06-29T07:20:52.807Z,16.90
2018-06-29T07:23:22.226Z,16.90
2018-06-29T07:25:51.882Z,17.00
2018-06-29T07:28:21.112Z,17.00
2018-06-29T07:30:50.285Z,17.10
2018-06-29T07:33:19.148Z,17.10
2018-06-29T07:35:48.105Z,17.10
2018-06-29T07:38:16.900Z,17.20
2018-06-29T07:40:46.128Z,17.20
2018-06-29T07:45:44.018Z,17.30
2018-06-29T07:48:12.935Z,17.30
2018-06-29T07:50:41.820Z,17.40
2018-06-29T07:53:11.004Z,17.40
2018-06-29T07:55:40.466Z,17.40
2018-06-29T07:58:09.611Z,17.50
2018-06-29T08:00:38.873Z,17.50
2018-06-29T08:03:07.860Z,17.50
2018-06-29T08:05:36.885Z,17.60
2018-06-29T08:08:06.517Z,17.60
2018-06-29T08:10:35.631Z,17.80
2018-06-29T08:13:04.504Z,17.80
2018-06-29T08:15:33.357Z,17.90
2018-06-29T08:18:02.149Z,18.10
2018-06-29T08:20:31.373Z,18.20
2018-06-29T08:23:00.723Z,18.20
2018-06-29T08:25:30.055Z,18.30
2018-06-29T08:27:59.477Z,18.40
2018-06-29T08:30:28.593Z,18.50
2018-06-29T08:32:57.627Z,18.60
2018-06-29T08:35:26.473Z,18.70
2018-06-29T08:37:55.374Z,18.90
2018-06-29T08:40:25.223Z,18.90
2018-06-29T08:42:54.096Z,19.10
2018-06-29T08:45:23.268Z,19.20
2018-06-29T08:47:52.168Z,19.30
2018-06-29T08:50:21.900Z,19.40
2018-06-29T08:52:50.746Z,19.50
2018-06-29T08:55:19.658Z,19.60
2018-06-29T08:57:48.490Z,19.80
2018-06-29T09:02:45.960Z,19.90
2018-06-29T09:05:14.784Z,20.00
2018-06-29T09:07:43.681Z,20.10
2018-06-29T09:10:12.696Z,20.30
2018-06-29T09:12:42.119Z,20.30
2018-06-29T09:15:11.201Z,20.40
2018-06-29T09:17:40.353Z,20.50
2018-06-29T09:20:09.641Z,20.60
2018-06-29T09:22:39.453Z,20.70
2018-06-29T09:25:08.479Z,20.80
2018-06-29T09:27:37.284Z,20.90
2018-06-29T09:30:07.122Z,21.00
2018-06-29T09:32:36.169Z,21.10
2018-06-29T09:40:02.588Z,21.50
2018-06-29T09:42:31.756Z,21.60
2018-06-29T09:45:00.648Z,21.70
2018-06-29T09:47:29.912Z,21.80
2018-06-29T09:49:58.825Z,21.90
2018-06-29T09:52:28.212Z,22.00
2018-06-29T09:54:57.209Z,22.10
2018-06-29T09:57:26.093Z,22.20
2018-06-29T09:59:54.950Z,22.30
2018-06-29T10:02:31.609Z,22.40
2018-06-29T10:04:53.370Z,22.50
2018-06-29T10:07:22.204Z,22.50
2018-06-29T10:09:51.438Z,22.60
2018-06-29T10:12:20.329Z,22.70
2018-06-29T10:17:17.576Z,22.90
2018-06-29T10:19:46.532Z,23.00
2018-06-29T10:22:15.394Z,23.10
2018-06-29T10:27:12.804Z,23.30
2018-06-29T10:29:41.628Z,23.30
2018-06-29T10:32:10.509Z,23.40
2018-06-29T10:34:39.425Z,23.50
2018-06-29T10:37:08.380Z,23.50
2018-06-29T10:39:37.312Z,23.60
2018-06-29T10:42:06.206Z,23.60
2018-06-29T10:44:35.102Z,23.60
2018-06-29T10:47:03.937Z,23.60
2018-06-29T10:49:32.956Z,23.60
2018-06-29T10:52:01.971Z,23.60
2018-06-29T10:54:30.765Z,23.70
2018-06-29T10:56:59.689Z,23.70
2018-06-29T10:59:28.566Z,23.70
2018-06-29T11:01:57.579Z,23.80
2018-06-29T11:06:55.302Z,24.10
2018-06-29T11:09:24.144Z,24.20
2018-06-29T11:11:54.751Z,24.30
2018-06-29T11:14:23.568Z,24.40
2018-06-29T11:16:52.648Z,24.60
2018-06-29T11:19:21.526Z,24.70
2018-06-29T11:21:50.360Z,24.80
2018-06-29T11:24:19.201Z,24.90
2018-06-29T11:26:48.296Z,25.00
2018-06-29T11:29:17.229Z,25.00
2018-06-29T11:31:46.237Z,25.10
2018-06-29T11:36:43.919Z,25.30
2018-06-29T11:39:14.320Z,25.50
2018-06-29T11:41:43.687Z,25.60
2018-06-29T11:44:13.312Z,25.70
2018-06-29T11:46:42.370Z,25.80
2018-06-29T11:49:12.380Z,25.80
2018-06-29T11:51:41.516Z,25.80
2018-06-29T11:54:10.727Z,25.80
2018-06-29T11:56:39.761Z,25.80
2018-06-29T11:59:09.056Z,25.90
2018-06-29T12:01:38.441Z,26.00
2018-06-29T12:04:08.585Z,25.90
2018-06-29T12:06:37.870Z,25.90
2018-06-29T12:09:10.169Z,26.00
2018-06-29T12:11:39.004Z,26.10
2018-06-29T12:14:08.476Z,26.20
2018-06-29T12:16:37.412Z,26.30
2018-06-29T12:19:06.464Z,26.40
2018-06-29T12:21:35.592Z,26.50
2018-06-29T12:24:04.776Z,26.60
2018-06-29T12:26:33.826Z,26.80
2018-06-29T12:29:02.917Z,26.90
2018-06-29T12:31:31.853Z,26.90
2018-06-29T12:34:01.139Z,26.80
2018-06-29T12:36:30.276Z,26.70
2018-06-29T12:39:00.612Z,26.70
2018-06-29T12:41:30.094Z,26.60
2018-06-29T12:43:59.188Z,26.70
2018-06-29T12:46:28.054Z,26.70
2018-06-29T12:48:57.049Z,26.80
2018-06-29T12:51:26.345Z,27.00
2018-06-29T12:53:55.388Z,27.10
2018-06-29T12:56:24.362Z,27.20
2018-06-29T12:58:53.410Z,27.20
2018-06-29T13:01:22.356Z,27.30
2018-06-29T13:03:51.645Z,27.40
2018-06-29T13:06:21.632Z,27.40
2018-06-29T13:08:51.067Z,27.40
2018-06-29T13:11:20.183Z,27.50
2018-06-29T13:13:49.029Z,27.60
2018-06-29T13:16:17.956Z,27.80
2018-06-29T13:18:46.882Z,27.90
2018-06-29T13:21:16.049Z,28.20
2018-06-29T13:23:47.063Z,28.20
2018-06-29T13:26:17.511Z,28.30
2018-06-29T13:28:46.416Z,28.60
2018-06-29T13:31:15.347Z,29.00
2018-06-29T13:33:44.339Z,29.70
2018-06-29T13:36:13.324Z,30.30
2018-06-29T13:38:43.661Z,30.80
2018-06-29T13:41:14.071Z,31.40
2018-06-29T13:43:43.215Z,31.80
2018-06-29T13:46:12.989Z,32.30
2018-06-29T13:48:41.977Z,32.80
2018-06-29T13:51:13.284Z,33.00
2018-06-29T13:53:46.450Z,33.40
2018-06-29T13:58:45.081Z,33.10
2018-06-29T14:01:14.301Z,33.30
2018-06-29T14:03:45.790Z,33.40
2018-06-29T14:06:14.764Z,33.60
2018-06-29T14:08:44.918Z,33.70
2018-06-29T14:11:14.102Z,33.80
2018-06-29T14:13:43.973Z,33.90
2018-06-29T14:18:42.701Z,34.70
2018-06-29T14:21:14.160Z,34.90
2018-06-29T14:23:43.588Z,35.00
2018-06-29T14:26:14.853Z,34.90
2018-06-29T14:28:45.742Z,34.90
2018-06-29T14:31:14.906Z,34.80
2018-06-29T14:33:46.539Z,35.10
2018-06-29T14:36:18.564Z,35.10
2018-06-29T14:38:48.928Z,35.30
2018-06-29T14:41:21.526Z,35.80
2018-06-29T14:43:55.345Z,35.90
2018-06-29T14:46:24.767Z,35.70
2018-06-29T14:48:53.750Z,35.60
2018-06-29T14:51:23.005Z,35.70
2018-06-29T14:53:52.092Z,35.90
2018-06-29T14:56:21.093Z,35.60
2018-06-29T14:58:50.338Z,35.60
2018-06-29T15:01:19.333Z,35.80
2018-06-29T15:03:48.605Z,36.10
2018-06-29T15:06:17.978Z,36.10
2018-06-29T15:11:16.690Z,36.10
2018-06-29T15:13:46.169Z,36.50
2018-06-29T15:16:15.544Z,36.70
2018-06-29T15:18:44.636Z,37.10
2018-06-29T15:21:13.733Z,37.20
2018-06-29T15:23:42.952Z,37.10
2018-06-29T15:26:12.155Z,37.00
2018-06-29T15:28:41.231Z,36.90
2018-06-29T15:31:11.306Z,37.10
2018-06-29T15:33:40.772Z,37.00
2018-06-29T15:36:09.813Z,37.20
2018-06-29T15:41:07.742Z,37.50
2018-06-29T15:43:36.824Z,37.50
2018-06-29T15:46:06.934Z,37.10
2018-06-29T15:48:36.293Z,36.80
2018-06-29T15:51:06.101Z,37.10
2018-06-29T15:53:35.160Z,37.10
2018-06-29T15:56:04.212Z,37.30
2018-06-29T15:58:33.194Z,37.40
2018-06-29T16:01:04.317Z,37.50
2018-06-29T16:03:34.747Z,37.70
2018-06-29T16:06:04.825Z,37.60
2018-06-29T16:08:34.177Z,37.70
2018-06-29T16:11:04.463Z,37.40
2018-06-29T16:13:33.614Z,37.40
2018-06-29T16:16:02.623Z,37.70
2018-06-29T16:18:31.602Z,38.10
2018-06-29T16:21:01.858Z,38.00
2018-06-29T16:23:30.807Z,38.00
2018-06-29T16:25:59.914Z,37.60
2018-06-29T16:28:30.289Z,37.20
2018-06-29T16:30:59.299Z,37.30
2018-06-29T16:33:28.362Z,37.30
2018-06-29T16:35:57.486Z,36.90
2018-06-29T16:38:26.550Z,36.60
2018-06-29T16:40:55.524Z,36.90
2018-06-29T16:43:24.484Z,36.90
2018-06-29T16:45:53.401Z,37.20
2018-06-29T16:48:22.639Z,37.50
2018-06-29T16:50:51.621Z,37.30
2018-06-29T16:53:20.503Z,37.10
2018-06-29T16:55:49.351Z,37.00
2018-06-29T16:58:18.200Z,37.20
2018-06-29T17:00:47.229Z,37.80
2018-06-29T17:03:17.425Z,38.50
2018-06-29T17:08:16.552Z,38.30
2018-06-29T17:10:45.525Z,38.00
2018-06-29T17:13:14.438Z,38.10
2018-06-29T17:15:43.457Z,38.00
2018-06-29T17:18:12.321Z,38.10
2018-06-29T17:20:41.194Z,38.10
2018-06-29T17:23:13.021Z,38.10
2018-06-29T17:25:41.909Z,38.30
2018-06-29T17:28:11.637Z,38.50
2018-06-29T17:30:40.733Z,38.00
2018-06-29T17:33:09.823Z,37.80
2018-06-29T17:35:39.102Z,37.80
2018-06-29T17:38:08.899Z,38.10
2018-06-29T17:40:46.664Z,38.10
2018-06-29T17:43:15.548Z,37.90
2018-06-29T17:45:44.400Z,38.40
2018-06-29T17:48:13.285Z,38.40
2018-06-29T17:50:42.145Z,38.20
2018-06-29T17:53:11.006Z,38.30
2018-06-29T17:55:39.834Z,38.10
2018-06-29T17:58:08.966Z,37.90
2018-06-29T18:00:38.114Z,37.70
2018-06-29T18:03:07.208Z,37.30
2018-06-29T18:05:36.234Z,37.00
2018-06-29T18:10:33.840Z,36.70
2018-06-29T18:13:03.055Z,36.70
2018-06-29T18:15:31.825Z,37.00
2018-06-29T18:18:01.188Z,36.90
2018-06-29T18:20:30.347Z,36.70
2018-06-29T18:22:59.581Z,36.50
2018-06-29T18:25:28.720Z,36.60
2018-06-29T18:27:58.146Z,36.80
2018-06-29T18:30:27.372Z,36.40
2018-06-29T18:32:56.780Z,36.00
2018-06-29T18:35:25.918Z,35.70
2018-06-29T18:37:55.264Z,35.70
2018-06-29T18:40:24.664Z,35.90
2018-06-29T18:42:53.835Z,35.90
2018-06-29T18:45:23.293Z,35.70
2018-06-29T18:47:52.698Z,35.70
2018-06-29T18:50:21.953Z,35.40
2018-06-29T18:52:50.913Z,35.20
2018-06-29T18:57:48.895Z,34.80
2018-06-29T19:02:47.320Z,34.70
2018-06-29T19:05:16.412Z,34.80
2018-06-29T19:07:45.457Z,34.60
2018-06-29T19:10:14.959Z,34.50
2018-06-29T19:12:44.391Z,34.30
2018-06-29T19:15:13.591Z,33.90
2018-06-29T19:17:42.861Z,33.50
2018-06-29T19:20:12.261Z,33.40
2018-06-29T19:22:41.369Z,33.20
2018-06-29T19:25:10.677Z,33.30
2018-06-29T19:27:40.141Z,33.30
2018-06-29T19:30:09.021Z,32.90
2018-06-29T19:32:38.304Z,32.70
2018-06-29T19:35:12.475Z,32.40
2018-06-29T19:37:41.834Z,32.20
2018-06-29T19:40:10.788Z,31.90
2018-06-29T19:42:40.044Z,31.60
2018-06-29T19:45:09.104Z,31.20
2018-06-29T19:47:38.385Z,30.80
2018-06-29T19:50:08.005Z,30.20
2018-06-29T19:52:37.275Z,29.80
2018-06-29T19:55:06.933Z,29.50
2018-06-29T19:57:36.206Z,28.80
2018-06-29T20:00:06.437Z,28.00
2018-06-29T20:02:35.504Z,27.40
2018-06-29T20:05:04.829Z,26.90
2018-06-29T20:07:34.253Z,26.50
2018-06-29T20:10:08.859Z,26.20
2018-06-29T20:12:38.005Z,25.90
2018-06-29T20:15:08.584Z,25.70
2018-06-29T20:17:37.648Z,25.60
2018-06-29T20:20:08.069Z,25.40
2018-06-29T20:22:37.114Z,25.20
2018-06-29T20:25:10.455Z,25.10
2018-06-29T20:27:41.327Z,24.90
2018-06-29T20:30:11.478Z,24.80
2018-06-29T20:32:40.864Z,24.60
2018-06-29T20:35:10.483Z,24.60
2018-06-29T20:37:39.565Z,24.50
2018-06-29T20:40:08.753Z,24.50
2018-06-29T20:50:12.720Z,24.10
2018-06-29T20:52:42.289Z,24.00
2018-06-29T20:55:15.370Z,23.80
2018-06-29T20:57:44.446Z,23.80
2018-06-29T21:00:13.606Z,23.70
2018-06-29T21:02:42.529Z,23.60
2018-06-29T21:05:11.393Z,23.50
2018-06-29T21:07:40.252Z,23.40
2018-06-29T21:10:09.178Z,23.30
2018-06-29T21:12:38.467Z,23.20
2018-06-29T21:15:07.653Z,23.10
2018-06-29T21:17:37.042Z,23.10
2018-06-29T21:20:06.229Z,23.00
2018-06-29T21:25:04.307Z,22.90
2018-06-29T21:27:33.613Z,22.90
2018-06-29T21:30:03.044Z,22.80
2018-06-29T21:32:32.264Z,22.60
2018-06-29T21:35:01.341Z,22.60
2018-06-29T21:37:30.627Z,22.50
2018-06-29T21:39:59.636Z,22.40
2018-06-29T21:42:28.846Z,22.30
2018-06-29T21:44:58.261Z,22.30
2018-06-29T21:47:27.484Z,22.20
2018-06-29T21:49:56.756Z,22.10
2018-06-29T21:52:27.042Z,22.00
2018-06-29T21:54:56.306Z,21.90
2018-06-29T21:57:25.420Z,21.90
2018-06-29T21:59:54.329Z,21.80
2018-06-29T22:02:23.513Z,21.70
2018-06-29T22:04:52.678Z,21.60
2018-06-29T22:07:21.857Z,21.60
2018-06-29T22:09:51.289Z,21.50
2018-06-29T22:12:20.589Z,21.40
2018-06-29T22:14:49.757Z,21.30
2018-06-29T22:17:18.958Z,21.30
2018-06-29T22:19:48.352Z,21.20
2018-06-29T22:22:17.398Z,21.10
2018-06-29T22:24:46.573Z,21.10
2018-06-29T22:27:15.600Z,21.00
2018-06-29T22:29:44.838Z,20.90
2018-06-29T22:32:14.173Z,20.90
2018-06-29T22:34:43.623Z,20.80
2018-06-29T22:37:12.911Z,20.70
2018-06-29T22:39:42.363Z,20.60
2018-06-29T22:42:11.941Z,20.50
2018-06-29T22:44:41.031Z,20.40
2018-06-29T22:47:10.395Z,20.30
2018-06-29T22:49:39.823Z,20.20
2018-06-29T22:52:09.240Z,20.20
2018-06-29T22:54:38.588Z,20.10
2018-06-29T22:57:08.263Z,20.10
2018-06-29T22:59:37.666Z,20.00
2018-06-29T23:02:06.731Z,19.90
2018-06-29T23:04:35.948Z,19.80
2018-06-29T23:07:05.130Z,19.80
2018-06-29T23:09:34.434Z,19.70
2018-06-29T23:12:03.654Z,19.60
2018-06-29T23:14:33.143Z,19.60
2018-06-29T23:17:02.733Z,19.50
2018-06-29T23:19:31.857Z,19.40
2018-06-29T23:22:01.009Z,19.30
2018-06-29T23:24:30.389Z,19.30
2018-06-29T23:27:02.808Z,19.30
2018-06-29T23:29:32.144Z,19.20
2018-06-29T23:32:01.409Z,19.10
2018-06-29T23:34:30.509Z,19.10
2018-06-29T23:36:59.576Z,19.00
2018-06-29T23:39:29.062Z,18.90
2018-06-29T23:41:58.160Z,18.80
2018-06-29T23:44:26.996Z,18.80
2018-06-29T23:46:56.326Z,18.70
2018-06-29T23:49:25.500Z,18.70
2018-06-29T23:51:54.772Z,18.60
2018-06-29T23:54:24.080Z,18.60
2018-06-29T23:56:53.388Z,18.50
2018-06-29T23:59:22.629Z,18.40
